2G4

Garrett County Airport

Oakland, Maryland, USA
METAR K2G4 210520Z AUTO 15009G15KT 5SM OVC004 17/17 A3012 RMK AO1
Observed Flight Rules
Aug-21 @ 05:20 UTC (12 hours ago) Instrument Flight Rules
Wind Visibility Clouds
150° at 9 knots
 Gusting to 15 knots
5 miles
  • Overcast at 400' AGL
Temperatures Readings
Current 17°C / 63°F
Dewpoint 17°C / 63°F
Humidity 100%
Altimeter 30.12" Hg
Pressure 1020 hPa
Elevation 894
METAR K2G4 210520Z AUTO 15009G15KT 5SM OVC004 17/17 A3012 RMK AO1
Observed Flight Rules
Aug-21 @ 05:20 UTC
(12 hours ago)
LIFR
Wind Visibility
150° at 9 knots
 Gusting to 15 knots
5 miles
Clouds
  • Overcast at 400' AGL
Temperature Dewpoint
17°C / 63°F 17°C / 63°F
Humidity Altimeter Pressure
100% 30.12" Hg 1020 hPa